Time;durP1;ratioP1;P1;durP2;ratioP2;P2;SDS_P1;SDS_P2;PMS_P1;PMS_P2;Temp;Humidity;BMP_temperature;BMP_pressure;BME280_temperature;BME280_humidity;BME280_pressure;Samples;Min_cycle;Max_cycle;Signal;HPM_P1;HPM_P2
2021/06/17 00:00:06;;;;;;;0.80;0.80;;;17.50;95.80;;;;;;5047156;28;20180;-70
2021/06/17 00:02:32;;;;;;;0.63;0.63;;;17.40;95.70;;;;;;5042981;28;20190;-70
2021/06/17 00:04:57;;;;;;;0.70;0.70;;;17.40;96.40;;;;;;5054946;28;20174;-71
2021/06/17 00:07:23;;;;;;;0.98;0.98;;;17.30;96.30;;;;;;5058046;28;20195;-70
2021/06/17 00:09:49;;;;;;;0.80;0.80;;;17.20;96.40;;;;;;5050594;28;20195;-71
2021/06/17 00:12:14;;;;;;;0.82;0.82;;;17.20;96.40;;;;;;5050422;28;20234;-70
2021/06/17 00:14:40;;;;;;;3.92;0.80;;;17.20;96.90;;;;;;5051492;28;20179;-71
2021/06/17 00:17:06;;;;;;;1.00;1.00;;;17.10;96.90;;;;;;5049484;28;20188;-70
2021/06/17 00:19:32;;;;;;;1.30;1.15;;;17.10;96.60;;;;;;5050448;28;20179;-71
2021/06/17 00:21:58;;;;;;;2.47;0.80;;;17.00;96.70;;;;;;5057875;28;20235;-70
2021/06/17 00:24:24;;;;;;;1.30;0.73;;;17.00;97.00;;;;;;5035529;28;20187;-70
2021/06/17 00:26:50;;;;;;;1.35;1.08;;;16.90;96.90;;;;;;5046556;28;20201;-70
2021/06/17 00:29:17;;;;;;;0.60;0.60;;;16.90;97.10;;;;;;5048821;28;20211;-70
2021/06/17 00:31:43;;;;;;;0.77;0.77;;;16.80;97.10;;;;;;5052086;28;20354;-70
2021/06/17 00:34:09;;;;;;;0.70;0.63;;;16.80;97.00;;;;;;5040665;28;20277;-71
2021/06/17 00:36:39;;;;;;;0.93;0.82;;;16.80;97.10;;;;;;5032037;28;20183;-71
2021/06/17 00:39:07;;;;;;;0.98;0.70;;;16.70;97.20;;;;;;5059251;28;20192;-71
2021/06/17 00:41:33;;;;;;;1.08;0.95;;;16.70;97.40;;;;;;5054978;28;20216;-71
2021/06/17 00:43:59;;;;;;;1.00;1.00;;;16.70;97.60;;;;;;5049668;28;20180;-70
2021/06/17 00:46:25;;;;;;;0.93;0.93;;;16.70;98.20;;;;;;5049057;28;20210;-71
2021/06/17 00:48:52;;;;;;;0.60;0.60;;;16.60;98.30;;;;;;5050980;28;20178;-71
2021/06/17 00:51:18;;;;;;;0.82;0.82;;;16.60;98.10;;;;;;5036574;28;20658;-71
2021/06/17 00:53:44;;;;;;;0.70;0.70;;;16.60;98.00;;;;;;5049368;28;20263;-71
2021/06/17 00:56:09;;;;;;;0.98;0.98;;;16.60;97.90;;;;;;5045618;28;20184;-70
2021/06/17 00:58:35;;;;;;;1.05;0.95;;;16.60;97.90;;;;;;5060582;28;20262;-70
2021/06/17 01:01:02;;;;;;;0.90;0.90;;;16.60;98.00;;;;;;5048187;28;20696;-69
2021/06/17 01:03:28;;;;;;;0.77;0.77;;;16.50;98.10;;;;;;5048973;28;20206;-72
2021/06/17 01:05:54;;;;;;;0.98;0.98;;;16.50;98.50;;;;;;5048996;28;20581;-72
2021/06/17 01:08:31;;;;;;;1.42;1.40;;;16.50;98.40;;;;;;5046648;28;20183;-72
2021/06/17 01:11:35;;;;;;;0.90;0.90;;;16.50;98.00;;;;;;5059493;28;20194;-69
2021/06/17 01:14:26;;;;;;;0.95;0.95;;;16.40;98.00;;;;;;4987957;28;20278;-74
2021/06/17 01:17:01;;;;;;;0.90;0.90;;;16.40;98.30;;;;;;5003896;28;20196;-73
2021/06/17 01:19:30;;;;;;;1.40;0.80;;;16.40;98.20;;;;;;5005527;28;20188;-71
2021/06/17 01:21:58;;;;;;;1.13;1.13;;;16.40;98.20;;;;;;5002586;28;20255;-69
2021/06/17 01:24:41;;;;;;;0.90;0.90;;;16.40;98.30;;;;;;5005171;28;20288;-70
2021/06/17 01:27:44;;;;;;;1.08;1.08;;;16.40;98.20;;;;;;5006873;28;20335;-71
2021/06/17 01:30:15;;;;;;;1.08;1.08;;;16.30;98.10;;;;;;5004982;28;20185;-71
2021/06/17 01:32:46;;;;;;;1.05;1.05;;;16.30;98.50;;;;;;5004558;28;20193;-72
2021/06/17 01:35:14;;;;;;;1.15;1.15;;;16.30;98.50;;;;;;5005472;28;20193;-72
2021/06/17 01:37:41;;;;;;;1.08;1.08;;;16.30;98.50;;;;;;5008327;28;20724;-72
2021/06/17 01:40:08;;;;;;;1.52;1.52;;;16.20;98.50;;;;;;4995135;28;20247;-71
2021/06/17 01:42:36;;;;;;;1.20;1.20;;;16.20;98.50;;;;;;5007549;28;20188;-71
2021/06/17 01:45:03;;;;;;;1.13;1.13;;;16.20;98.50;;;;;;5005094;28;20197;-71
2021/06/17 01:47:30;;;;;;;5.60;1.73;;;16.10;98.50;;;;;;5004950;28;20181;-71
2021/06/17 01:49:57;;;;;;;1.35;1.25;;;16.10;98.50;;;;;;5007345;28;20189;-71
2021/06/17 01:52:25;;;;;;;1.40;1.33;;;16.10;98.50;;;;;;5051955;28;20179;-71
2021/06/17 01:54:51;;;;;;;1.55;1.55;;;16.00;98.50;;;;;;5048706;28;20630;-71
2021/06/17 01:57:19;;;;;;;1.30;1.30;;;16.00;98.50;;;;;;5048726;28;20683;-71
2021/06/17 01:59:48;;;;;;;1.75;1.65;;;16.00;98.50;;;;;;5053132;28;20274;-71
2021/06/17 02:02:15;;;;;;;1.52;1.52;;;16.00;98.50;;;;;;5053912;28;20211;-71
2021/06/17 02:04:46;;;;;;;1.52;1.40;;;15.90;98.50;;;;;;5049874;28;20187;-72
2021/06/17 02:07:13;;;;;;;1.50;1.50;;;15.90;98.50;;;;;;5029483;28;20745;-71
2021/06/17 02:09:38;;;;;;;3.05;1.20;;;15.90;98.50;;;;;;5047658;28;20211;-71
2021/06/17 02:12:05;;;;;;;2.33;1.35;;;15.90;98.50;;;;;;5050202;28;20736;-70
2021/06/17 02:14:31;;;;;;;5.30;1.40;;;15.90;98.50;;;;;;5059369;28;20948;-71
2021/06/17 02:17:00;;;;;;;1.42;1.40;;;15.90;98.50;;;;;;5051589;28;20187;-71
2021/06/17 02:19:29;;;;;;;2.67;1.10;;;15.80;98.50;;;;;;5046362;28;20180;-71
2021/06/17 02:21:59;;;;;;;2.58;1.33;;;15.80;98.50;;;;;;5056278;28;20587;-71
2021/06/17 02:24:26;;;;;;;1.40;1.27;;;15.80;98.50;;;;;;5047569;28;20215;-71
2021/06/17 02:26:57;;;;;;;1.25;1.25;;;15.80;98.50;;;;;;5045485;28;20233;-71
2021/06/17 02:29:24;;;;;;;1.23;1.23;;;15.80;98.50;;;;;;5055068;28;20187;-71
2021/06/17 02:31:51;;;;;;;6.15;1.77;;;15.80;98.50;;;;;;5046137;28;20191;-71
2021/06/17 02:34:18;;;;;;;3.70;1.60;;;15.80;98.50;;;;;;5059601;28;20184;-71
2021/06/17 02:36:46;;;;;;;6.95;1.75;;;15.80;98.50;;;;;;5051297;28;20187;-71
2021/06/17 02:39:18;;;;;;;2.10;1.83;;;15.70;98.50;;;;;;5045586;28;20187;-71
2021/06/17 02:41:50;;;;;;;1.42;1.42;;;15.70;98.50;;;;;;5046708;28;20220;-71
2021/06/17 02:44:18;;;;;;;1.88;1.88;;;15.70;98.50;;;;;;5050921;28;20262;-71
2021/06/17 02:46:44;;;;;;;1.92;1.88;;;15.70;98.50;;;;;;5046172;28;20180;-71
2021/06/17 02:49:09;;;;;;;1.52;1.48;;;15.70;98.50;;;;;;5059442;28;20869;-72
2021/06/17 02:51:35;;;;;;;1.58;1.52;;;15.60;98.50;;;;;;5047188;28;20187;-71
2021/06/17 02:54:01;;;;;;;2.38;2.28;;;15.60;98.50;;;;;;5053837;28;20692;-71
2021/06/17 02:56:56;;;;;;;1.35;1.35;;;15.60;98.50;;;;;;5048348;28;20721;-71
2021/06/17 02:59:25;;;;;;;1.50;1.40;;;15.50;98.50;;;;;;5048642;28;20179;-71
2021/06/17 03:02:04;;;;;;;1.90;1.80;;;15.50;98.50;;;;;;5028250;28;20857;-71
2021/06/17 03:04:39;;;;;;;1.95;1.85;;;15.50;98.50;;;;;;5047018;28;20266;-70
2021/06/17 03:07:08;;;;;;;1.60;1.50;;;15.50;98.50;;;;;;5047429;28;20186;-71
2021/06/17 03:09:41;;;;;;;2.17;1.88;;;15.50;98.50;;;;;;5058256;28;20193;-71
2021/06/17 03:12:08;;;;;;;1.58;1.52;;;15.40;98.50;;;;;;5043647;28;20198;-71
2021/06/17 03:14:37;;;;;;;1.48;1.48;;;15.40;98.50;;;;;;5048398;28;20206;-71
2021/06/17 03:17:05;;;;;;;2.08;1.98;;;15.40;98.50;;;;;;5045450;28;20225;-71
2021/06/17 03:19:33;;;;;;;1.73;1.63;;;15.40;98.50;;;;;;5049212;28;20182;-73
2021/06/17 03:22:05;;;;;;;2.30;1.90;;;15.40;98.50;;;;;;5047512;28;20223;-71
2021/06/17 03:24:36;;;;;;;1.70;1.70;;;15.50;98.50;;;;;;5053624;28;20215;-71
2021/06/17 03:27:04;;;;;;;1.48;1.48;;;15.50;98.50;;;;;;5044650;28;20180;-72
2021/06/17 03:29:37;;;;;;;1.70;1.60;;;15.50;98.50;;;;;;5046467;28;20203;-72
2021/06/17 03:32:05;;;;;;;1.60;1.60;;;15.50;98.50;;;;;;5049086;28;20190;-71
2021/06/17 03:34:31;;;;;;;1.48;1.48;;;15.50;98.50;;;;;;5049744;28;20268;-72
2021/06/17 03:37:01;;;;;;;6.85;2.13;;;15.50;98.50;;;;;;5051229;28;20215;-71
2021/06/17 03:39:28;;;;;;;1.58;1.58;;;15.60;98.50;;;;;;5047606;28;20238;-72
2021/06/17 03:41:54;;;;;;;2.10;2.00;;;15.60;98.50;;;;;;5048881;28;20677;-71
2021/06/17 03:44:23;;;;;;;2.15;2.05;;;15.60;98.50;;;;;;5042000;28;20179;-72
2021/06/17 03:46:50;;;;;;;1.70;1.70;;;15.70;98.50;;;;;;5051112;28;20179;-70
2021/06/17 03:49:16;;;;;;;3.22;1.60;;;15.70;98.50;;;;;;5058229;28;20183;-72
2021/06/17 03:51:42;;;;;;;2.55;2.15;;;15.70;98.50;;;;;;5050481;28;20672;-71
2021/06/17 03:54:09;;;;;;;2.40;2.30;;;15.70;98.50;;;;;;5050261;28;20187;-70
2021/06/17 03:56:36;;;;;;;2.20;2.00;;;15.70;98.50;;;;;;5046342;28;20199;-71
2021/06/17 03:59:02;;;;;;;2.92;2.28;;;15.80;98.50;;;;;;5053689;28;20186;-71
2021/06/17 04:01:30;;;;;;;1.73;1.73;;;15.80;98.50;;;;;;5057175;28;20280;-71
2021/06/17 04:03:55;;;;;;;2.15;2.13;;;15.90;98.50;;;;;;5050211;28;20668;-70
2021/06/17 04:06:25;;;;;;;2.38;2.28;;;15.90;98.50;;;;;;5048411;28;20191;-71
2021/06/17 04:08:52;;;;;;;2.45;2.28;;;15.90;98.50;;;;;;5049083;28;20211;-72
2021/06/17 04:11:21;;;;;;;1.95;1.42;;;16.00;98.50;;;;;;5048516;28;20245;-71
2021/06/17 04:13:48;;;;;;;2.22;2.13;;;16.00;98.50;;;;;;5026462;28;20274;-72
2021/06/17 04:16:18;;;;;;;2.05;2.05;;;16.00;98.50;;;;;;5032249;28;20984;-69
2021/06/17 04:18:46;;;;;;;2.17;2.05;;;16.10;98.50;;;;;;5038240;28;20201;-69
2021/06/17 04:21:14;;;;;;;2.70;2.10;;;16.10;98.50;;;;;;5048686;28;20222;-69
2021/06/17 04:23:44;;;;;;;2.13;1.80;;;16.20;98.50;;;;;;5045875;28;20483;-71
2021/06/17 04:26:11;;;;;;;2.30;2.25;;;16.20;98.50;;;;;;5046859;28;20194;-72
2021/06/17 04:28:38;;;;;;;1.95;1.85;;;16.20;98.50;;;;;;5049200;28;20318;-72
2021/06/17 04:31:04;;;;;;;2.30;2.20;;;16.30;98.50;;;;;;5044894;28;20248;-71
2021/06/17 04:33:30;;;;;;;2.63;2.10;;;16.40;98.50;;;;;;5050129;28;20179;-72
2021/06/17 04:35:59;;;;;;;2.10;2.00;;;16.50;98.50;;;;;;5059433;28;20555;-72
2021/06/17 04:38:26;;;;;;;2.03;1.83;;;16.50;98.50;;;;;;5050516;28;20224;-72
2021/06/17 04:40:52;;;;;;;3.03;2.92;;;16.60;98.50;;;;;;5050792;28;20218;-72
2021/06/17 04:43:23;;;;;;;3.33;3.05;;;16.70;98.50;;;;;;5049568;28;20576;-72
2021/06/17 04:45:53;;;;;;;3.22;3.03;;;16.70;98.50;;;;;;5050253;28;20692;-72
2021/06/17 04:48:22;;;;;;;3.47;3.28;;;16.80;98.30;;;;;;5056393;28;20196;-71
2021/06/17 04:50:48;;;;;;;3.90;3.55;;;16.80;98.30;;;;;;5049273;28;20195;-71
2021/06/17 04:53:16;;;;;;;3.50;3.20;;;16.90;98.50;;;;;;5053682;28;20183;-72
2021/06/17 04:55:48;;;;;;;4.90;3.70;;;16.90;98.30;;;;;;5059830;28;20183;-72
2021/06/17 04:58:14;;;;;;;4.35;3.60;;;17.00;98.10;;;;;;5051834;28;20715;-71
2021/06/17 05:00:40;;;;;;;3.53;3.33;;;17.10;98.00;;;;;;5049263;28;20204;-73
2021/06/17 05:03:06;;;;;;;3.92;3.45;;;17.10;97.80;;;;;;5047469;28;20716;-71
2021/06/17 05:05:32;;;;;;;4.90;4.03;;;17.20;97.90;;;;;;5048723;28;20652;-71
2021/06/17 05:10:49;;;;;;;6.13;5.10;;;17.20;97.80;;;;;;5045735;28;20298;-71
2021/06/17 05:13:20;;;;;;;7.43;5.65;;;17.20;98.30;;;;;;5029893;28;20287;-71
2021/06/17 05:15:45;;;;;;;9.07;5.70;;;17.10;97.70;;;;;;5037185;28;20298;-71
2021/06/17 05:18:11;;;;;;;5.70;5.10;;;17.10;97.80;;;;;;5048468;28;20222;-71
2021/06/17 05:20:37;;;;;;;6.05;5.05;;;17.10;98.00;;;;;;5053626;28;20291;-73
2021/06/17 05:23:03;;;;;;;7.30;5.60;;;17.20;98.00;;;;;;5050308;28;20233;-72
2021/06/17 05:25:29;;;;;;;6.38;4.90;;;17.20;97.80;;;;;;5042246;28;20198;-72
2021/06/17 05:27:54;;;;;;;6.75;5.07;;;17.20;97.70;;;;;;5048082;28;20274;-72
2021/06/17 05:30:20;;;;;;;8.15;5.28;;;17.30;97.70;;;;;;5048598;28;20719;-71
2021/06/17 05:32:46;;;;;;;10.60;5.70;;;17.30;97.80;;;;;;5048351;28;20956;-71
2021/06/17 05:35:12;;;;;;;10.68;5.88;;;17.30;97.60;;;;;;5048648;28;20179;-73
2021/06/17 05:37:38;;;;;;;8.27;5.32;;;17.40;97.60;;;;;;5048579;28;20184;-70
2021/06/17 05:40:05;;;;;;;6.72;4.80;;;17.40;97.60;;;;;;5048870;28;20264;-71
2021/06/17 05:42:32;;;;;;;5.90;4.85;;;17.50;97.50;;;;;;5050273;28;20645;-71
2021/06/17 05:44:57;;;;;;;7.25;4.63;;;17.50;97.30;;;;;;5046950;28;20172;-71
2021/06/17 05:47:23;;;;;;;5.05;4.65;;;17.60;97.20;;;;;;5047405;28;20578;-72
2021/06/17 05:49:49;;;;;;;7.80;4.80;;;17.60;97.10;;;;;;5047991;28;20191;-71
2021/06/17 05:52:15;;;;;;;10.23;5.63;;;17.70;97.10;;;;;;5053337;28;20246;-71
2021/06/17 05:54:41;;;;;;;5.85;5.28;;;17.70;97.20;;;;;;5050429;28;20183;-71
2021/06/17 05:57:08;;;;;;;9.80;5.10;;;17.70;97.20;;;;;;5033354;28;20295;-71
2021/06/17 05:59:33;;;;;;;9.43;5.82;;;17.80;97.20;;;;;;5046580;28;20270;-70
2021/06/17 06:01:59;;;;;;;5.95;5.22;;;17.80;97.20;;;;;;5036703;28;20776;-70
2021/06/17 06:04:24;;;;;;;10.27;6.65;;;17.80;97.20;;;;;;5047462;28;20253;-70
2021/06/17 06:06:50;;;;;;;7.70;5.25;;;17.80;97.30;;;;;;5047429;28;20241;-70
2021/06/17 06:09:16;;;;;;;5.78;5.18;;;17.90;97.30;;;;;;5046899;28;20202;-70
2021/06/17 06:11:42;;;;;;;7.28;6.40;;;17.90;97.30;;;;;;5047494;28;20187;-69
2021/06/17 06:14:07;;;;;;;8.75;5.93;;;17.90;97.40;;;;;;5047757;28;20184;-70
2021/06/17 06:16:38;;;;;;;6.30;5.07;;;18.00;97.30;;;;;;5117738;27;20536;-71
2021/06/17 06:19:06;;;;;;;8.23;5.55;;;18.10;97.40;;;;;;5104840;28;20190;-71
2021/06/17 06:21:32;;;;;;;6.55;5.72;;;18.10;97.30;;;;;;5105027;28;20701;-71
2021/06/17 06:23:58;;;;;;;6.55;4.57;;;18.20;96.90;;;;;;5103156;28;20242;-70
2021/06/17 06:26:24;;;;;;;10.02;5.78;;;18.30;96.90;;;;;;5104745;28;20178;-70
2021/06/17 06:28:49;;;;;;;5.95;5.32;;;18.40;96.90;;;;;;5104880;28;20722;-70
2021/06/17 06:31:15;;;;;;;5.38;4.70;;;18.60;96.70;;;;;;5103091;28;20375;-71
2021/06/17 06:33:41;;;;;;;4.72;4.32;;;18.60;96.50;;;;;;5100496;28;20178;-70
2021/06/17 06:36:07;;;;;;;6.88;5.05;;;18.70;96.10;;;;;;5104032;28;20288;-71
2021/06/17 06:38:32;;;;;;;6.47;4.85;;;18.70;95.60;;;;;;5103950;28;20184;-71
2021/06/17 06:40:59;;;;;;;10.30;5.88;;;18.80;95.40;;;;;;5104239;28;20178;-71
2021/06/17 06:43:26;;;;;;;5.85;4.47;;;18.80;95.10;;;;;;5102677;28;20662;-70
2021/06/17 06:45:51;;;;;;;5.47;4.97;;;18.90;95.00;;;;;;5104388;28;20213;-71
2021/06/17 06:48:18;;;;;;;5.15;4.65;;;18.90;94.90;;;;;;5099128;28;20736;-71
2021/06/17 06:50:45;;;;;;;5.22;4.57;;;19.00;94.90;;;;;;5111540;28;20181;-71
2021/06/17 06:53:11;;;;;;;6.47;4.85;;;19.10;94.50;;;;;;5104126;28;20182;-71
2021/06/17 06:55:36;;;;;;;4.72;4.32;;;19.20;94.50;;;;;;5104205;28;20669;-71
2021/06/17 06:58:03;;;;;;;4.45;4.13;;;19.20;93.60;;;;;;5104144;28;20586;-70
2021/06/17 07:00:29;;;;;;;7.45;4.55;;;19.30;93.60;;;;;;5104388;28;20190;-71
2021/06/17 07:02:54;;;;;;;5.57;4.55;;;19.30;93.70;;;;;;5103445;28;20186;-70
2021/06/17 07:05:20;;;;;;;4.82;4.47;;;19.40;93.50;;;;;;5103401;28;20190;-70
2021/06/17 07:07:46;;;;;;;5.85;4.43;;;19.40;93.60;;;;;;5100391;28;20179;-71
2021/06/17 07:10:12;;;;;;;5.75;3.90;;;19.50;93.50;;;;;;5112791;28;20189;-70
2021/06/17 07:12:38;;;;;;;4.10;3.10;;;19.60;93.30;;;;;;5103737;28;20189;-71
2021/06/17 07:15:05;;;;;;;2.85;2.75;;;19.70;92.60;;;;;;5103566;28;20278;-70
2021/06/17 07:17:30;;;;;;;2.88;2.67;;;19.80;92.30;;;;;;5103785;28;20174;-70
2021/06/17 07:19:56;;;;;;;3.65;2.78;;;19.80;91.50;;;;;;5103849;28;20203;-70
2021/06/17 07:22:23;;;;;;;2.45;2.35;;;19.90;90.50;;;;;;5102489;28;20637;-70
2021/06/17 07:24:49;;;;;;;2.70;2.60;;;20.00;90.60;;;;;;5104039;28;20177;-70
2021/06/17 07:27:15;;;;;;;3.20;2.90;;;20.00;91.00;;;;;;5093997;28;20223;-70
2021/06/17 07:29:40;;;;;;;3.80;3.55;;;20.10;90.70;;;;;;5084493;28;20281;-70
2021/06/17 07:32:08;;;;;;;3.75;3.50;;;20.20;90.20;;;;;;5083429;28;20240;-71
2021/06/17 07:34:35;;;;;;;3.17;2.85;;;20.30;90.70;;;;;;5092794;28;20205;-69
2021/06/17 07:37:00;;;;;;;4.25;3.40;;;20.40;89.90;;;;;;5089794;28;20174;-69
2021/06/17 07:39:26;;;;;;;3.75;3.38;;;20.50;90.10;;;;;;5089333;28;20170;-69
2021/06/17 07:41:52;;;;;;;4.97;2.85;;;20.60;89.70;;;;;;5086865;28;20719;-70
2021/06/17 07:44:18;;;;;;;4.68;2.88;;;20.70;90.00;;;;;;5086965;28;20182;-70
2021/06/17 07:46:44;;;;;;;6.72;3.38;;;20.80;89.30;;;;;;5087886;28;20174;-70
2021/06/17 07:49:10;;;;;;;2.65;2.50;;;20.90;89.00;;;;;;5081873;28;20178;-71
2021/06/17 07:51:37;;;;;;;3.70;2.35;;;20.90;87.10;;;;;;5086322;28;20643;-70
2021/06/17 07:54:05;;;;;;;3.80;2.50;;;21.00;87.60;;;;;;5085665;28;20274;-70
2021/06/17 07:56:32;;;;;;;3.45;2.28;;;21.10;87.50;;;;;;5071393;28;20222;-70
2021/06/17 07:58:58;;;;;;;3.25;3.05;;;21.20;88.00;;;;;;5088178;28;20219;-69
2021/06/17 08:01:25;;;;;;;3.25;2.38;;;21.30;87.60;;;;;;5085991;28;20835;-69
2021/06/17 08:03:52;;;;;;;2.47;2.30;;;21.40;85.70;;;;;;5091060;28;20184;-70
2021/06/17 08:06:18;;;;;;;2.38;2.28;;;21.40;85.70;;;;;;5079060;28;20197;-70
2021/06/17 08:08:44;;;;;;;2.53;2.38;;;21.50;85.60;;;;;;5085852;28;20236;-69
2021/06/17 08:11:10;;;;;;;2.67;2.58;;;21.60;85.00;;;;;;5086172;28;20174;-72
2021/06/17 08:13:39;;;;;;;4.25;2.22;;;21.70;86.00;;;;;;5085279;28;20228;-70
2021/06/17 08:16:05;;;;;;;2.60;2.33;;;21.70;86.20;;;;;;5083729;28;20272;-72
2021/06/17 08:18:31;;;;;;;2.10;2.00;;;21.80;84.90;;;;;;5086123;28;20182;-72
2021/06/17 08:21:00;;;;;;;2.25;2.15;;;21.90;84.10;;;;;;5068726;28;20189;-71
2021/06/17 08:23:26;;;;;;;2.33;2.22;;;22.00;83.80;;;;;;5085913;28;20178;-69
2021/06/17 08:25:52;;;;;;;2.50;2.40;;;22.10;84.70;;;;;;5087279;28;20182;-71
2021/06/17 08:28:18;;;;;;;4.85;2.20;;;22.20;84.60;;;;;;5087632;28;20185;-71
2021/06/17 08:30:44;;;;;;;2.10;2.00;;;22.30;83.30;;;;;;5081421;28;20182;-70
2021/06/17 08:33:09;;;;;;;1.70;1.70;;;22.40;83.50;;;;;;5079989;28;20183;-70
2021/06/17 08:35:35;;;;;;;1.25;1.25;;;22.50;82.80;;;;;;5076620;28;20289;-69
2021/06/17 08:38:02;;;;;;;1.52;1.50;;;22.60;82.20;;;;;;5083718;28;20334;-71
2021/06/17 08:40:34;;;;;;;2.47;2.20;;;22.60;82.40;;;;;;5087228;28;20181;-70
2021/06/17 08:43:00;;;;;;;4.43;2.10;;;22.70;81.10;;;;;;5088762;28;20166;-70
2021/06/17 08:45:26;;;;;;;1.38;1.38;;;22.80;80.60;;;;;;5087707;28;20182;-71
2021/06/17 08:47:52;;;;;;;1.65;1.65;;;22.90;80.60;;;;;;5088470;28;20185;-70
2021/06/17 08:50:18;;;;;;;2.10;1.90;;;23.00;80.50;;;;;;5086225;28;20182;-71
2021/06/17 08:52:45;;;;;;;2.10;2.00;;;23.00;78.60;;;;;;5087781;28;20185;-71
2021/06/17 08:55:25;;;;;;;3.30;1.98;;;23.10;77.50;;;;;;5087662;28;20209;-71
2021/06/17 08:57:52;;;;;;;1.73;1.63;;;23.10;77.10;;;;;;5084173;28;20192;-71
2021/06/17 09:00:21;;;;;;;2.03;2.03;;;23.20;79.80;;;;;;5083629;28;20202;-70
2021/06/17 09:03:05;;;;;;;1.80;1.70;;;23.30;79.50;;;;;;5087153;28;20205;-71
2021/06/17 09:05:34;;;;;;;1.58;1.58;;;23.40;79.40;;;;;;5084080;28;20178;-71
2021/06/17 09:08:00;;;;;;;1.95;1.85;;;23.50;79.70;;;;;;5085789;28;20183;-71
2021/06/17 09:10:27;;;;;;;2.20;1.92;;;23.50;77.20;;;;;;5085016;28;20183;-71
2021/06/17 09:12:56;;;;;;;1.23;1.23;;;23.60;76.90;;;;;;5079925;28;20240;-71
2021/06/17 09:15:32;;;;;;;1.40;1.40;;;23.60;75.30;;;;;;5086954;28;20222;-71
2021/06/17 09:18:13;;;;;;;1.75;1.38;;;23.60;73.30;;;;;;5087186;28;20359;-71
2021/06/17 09:20:44;;;;;;;1.10;1.10;;;23.70;73.30;;;;;;5087832;28;20192;-71
2021/06/17 09:23:21;;;;;;;1.50;1.30;;;23.70;72.00;;;;;;5086512;28;20583;-70
2021/06/17 09:25:48;;;;;;;1.30;1.30;;;23.80;71.70;;;;;;5084162;28;20190;-71
2021/06/17 09:28:14;;;;;;;1.40;1.30;;;23.80;71.70;;;;;;5086598;28;20580;-71
2021/06/17 09:30:40;;;;;;;1.13;1.13;;;23.80;72.10;;;;;;5077342;28;20208;-71
2021/06/17 09:33:10;;;;;;;1.80;1.17;;;23.90;71.80;;;;;;5082575;28;20204;-71
2021/06/17 09:36:06;;;;;;;1.27;1.27;;;23.90;71.70;;;;;;5080343;28;20245;-71
2021/06/17 09:38:46;;;;;;;1.23;1.23;;;24.00;71.20;;;;;;5086270;28;20691;-71
2021/06/17 09:41:30;;;;;;;1.58;1.30;;;24.10;73.20;;;;;;5087557;28;20858;-72
2021/06/17 09:43:56;;;;;;;2.00;1.27;;;24.30;74.60;;;;;;5080481;28;20228;-71
2021/06/17 09:46:22;;;;;;;1.55;1.45;;;24.50;72.80;;;;;;5082812;28;20273;-70
2021/06/17 09:48:49;;;;;;;1.42;1.35;;;24.60;73.70;;;;;;5081222;28;20183;-70
2021/06/17 09:51:27;;;;;;;1.90;1.30;;;24.80;73.10;;;;;;5095590;28;20236;-71
2021/06/17 09:54:14;;;;;;;1.25;0.98;;;25.00;72.80;;;;;;5092187;28;20174;-69
2021/06/17 09:56:41;;;;;;;0.90;0.90;;;25.10;69.80;;;;;;5090509;28;20216;-71
2021/06/17 09:59:10;;;;;;;1.25;1.25;;;25.20;68.20;;;;;;5094877;28;20662;-70
2021/06/17 10:01:45;;;;;;;1.10;1.10;;;25.30;67.80;;;;;;5092985;28;20184;-71
2021/06/17 10:04:18;;;;;;;1.20;1.20;;;25.50;69.20;;;;;;5092798;28;20572;-70
2021/06/17 10:06:44;;;;;;;1.50;1.40;;;25.60;69.90;;;;;;5095704;28;20177;-70
2021/06/17 10:09:11;;;;;;;1.00;1.00;;;25.90;68.20;;;;;;5091545;28;20234;-71
2021/06/17 10:11:40;;;;;;;1.23;1.23;;;26.10;68.70;;;;;;5094098;28;20189;-71
2021/06/17 10:14:07;;;;;;;1.23;1.13;;;26.30;66.70;;;;;;5087419;28;20178;-71
2021/06/17 10:16:34;;;;;;;1.42;1.33;;;26.40;65.70;;;;;;5095560;28;20263;-71
2021/06/17 10:19:00;;;;;;;1.27;1.27;;;26.70;65.90;;;;;;5095086;28;20565;-70
2021/06/17 10:21:27;;;;;;;1.33;1.33;;;26.90;65.80;;;;;;5096626;28;20198;-70
2021/06/17 10:23:53;;;;;;;1.48;1.48;;;27.10;64.70;;;;;;5092575;28;20268;-71
2021/06/17 10:26:22;;;;;;;1.63;1.60;;;27.30;65.40;;;;;;5093489;28;20186;-71
2021/06/17 10:28:53;;;;;;;2.53;1.70;;;27.60;63.80;;;;;;5097000;28;20182;-70
2021/06/17 10:31:39;;;;;;;1.42;1.42;;;27.80;64.00;;;;;;5098165;28;20996;-70
2021/06/17 10:34:22;;;;;;;2.20;1.23;;;28.10;62.20;;;;;;5071097;28;20763;-71
2021/06/17 10:37:09;;;;;;;1.33;1.33;;;28.20;61.70;;;;;;5060586;28;20201;-71
2021/06/17 10:40:06;;;;;;;1.63;1.08;;;28.50;60.90;;;;;;5064596;28;20194;-72
2021/06/17 10:42:42;;;;;;;1.80;1.10;;;28.70;60.10;;;;;;4979481;28;20208;-71
2021/06/17 10:45:10;;;;;;;1.27;1.27;;;29.10;61.80;;;;;;4977569;28;20622;-69
2021/06/17 10:47:47;;;;;;;1.30;1.30;;;29.70;59.90;;;;;;4978754;28;20728;-70
2021/06/17 10:50:26;;;;;;;2.05;1.25;;;30.40;58.30;;;;;;4970708;28;20189;-72
2021/06/17 10:53:14;;;;;;;1.38;0.95;;;31.30;56.80;;;;;;4980076;28;20201;-72
2021/06/17 10:56:02;;;;;;;1.38;1.27;;;32.20;56.20;;;;;;4969253;28;20299;-69
2021/06/17 10:58:43;;;;;;;1.15;1.15;;;33.10;54.10;;;;;;4978632;28;20301;-69
2021/06/17 11:01:29;;;;;;;1.20;1.20;;;33.60;52.40;;;;;;4975555;28;20210;-69
2021/06/17 11:04:06;;;;;;;1.17;1.17;;;34.00;52.20;;;;;;4983919;28;20201;-69
2021/06/17 11:06:52;;;;;;;1.50;1.50;;;34.40;52.20;;;;;;4983450;28;20208;-70
2021/06/17 11:09:39;;;;;;;1.35;1.27;;;34.80;51.90;;;;;;4979979;28;20189;-70
2021/06/17 11:12:17;;;;;;;2.38;1.30;;;35.20;50.40;;;;;;5004425;28;20199;-70
2021/06/17 11:14:48;;;;;;;1.13;1.10;;;35.50;50.10;;;;;;5019064;28;20993;-70
2021/06/17 11:17:27;;;;;;;1.30;1.20;;;35.90;50.00;;;;;;5017727;28;20731;-70
2021/06/17 11:20:18;;;;;;;0.93;0.93;;;36.40;49.40;;;;;;5063635;28;20689;-71
2021/06/17 11:23:01;;;;;;;1.20;1.20;;;36.70;47.50;;;;;;5099675;28;20177;-70
2021/06/17 11:25:29;;;;;;;1.52;0.90;;;37.00;48.70;;;;;;5098594;28;20230;-70
2021/06/17 11:27:58;;;;;;;1.10;1.00;;;37.30;48.80;;;;;;5097468;28;20257;-70
2021/06/17 11:33:18;;;;;;;0.98;0.98;;;38.10;46.70;;;;;;5093661;28;20221;-70
2021/06/17 11:35:54;;;;;;;1.80;1.13;;;38.10;46.70;;;;;;5097497;28;20724;-71
2021/06/17 11:38:28;;;;;;;1.73;1.65;;;38.10;52.10;;;;;;5096833;28;20189;-70
2021/06/17 11:40:54;;;;;;;1.40;1.40;;;37.60;51.50;;;;;;5093131;28;20177;-70
2021/06/17 11:43:23;;;;;;;1.63;1.55;;;36.80;52.50;;;;;;5096757;28;20180;-71
2021/06/17 11:45:49;;;;;;;1.45;1.45;;;36.00;54.50;;;;;;5096112;28;20185;-70
2021/06/17 11:48:15;;;;;;;1.60;1.55;;;35.30;55.90;;;;;;5097554;28;20982;-70
2021/06/17 11:50:46;;;;;;;1.80;1.70;;;34.70;56.40;;;;;;5096749;28;20176;-70
2021/06/17 11:53:29;;;;;;;1.42;1.33;;;34.10;56.70;;;;;;5097113;28;20256;-70
2021/06/17 11:55:57;;;;;;;1.20;1.20;;;33.60;55.60;;;;;;5097779;28;20304;-70
2021/06/17 11:58:31;;;;;;;1.70;1.13;;;33.70;57.20;;;;;;5098015;28;20181;-70
2021/06/17 12:00:58;;;;;;;1.30;1.30;;;33.70;58.10;;;;;;5098104;28;20173;-70
2021/06/17 12:03:25;;;;;;;1.42;1.42;;;33.60;57.00;;;;;;5094116;28;20608;-70
2021/06/17 12:05:51;;;;;;;1.30;1.20;;;33.40;59.30;;;;;;5098090;28;20330;-70
2021/06/17 12:08:23;;;;;;;6.90;1.50;;;33.50;57.30;;;;;;5097974;28;20278;-70
2021/06/17 12:10:57;;;;;;;2.92;1.30;;;34.10;58.50;;;;;;5092641;28;20300;-70
2021/06/17 12:13:23;;;;;;;1.40;1.40;;;34.70;55.40;;;;;;5087487;28;20577;-70
2021/06/17 12:15:58;;;;;;;1.10;1.10;;;35.50;55.30;;;;;;5085937;28;20205;-70
2021/06/17 12:18:24;;;;;;;1.33;1.33;;;36.40;53.90;;;;;;5086087;28;20663;-71
2021/06/17 12:20:51;;;;;;;1.20;1.20;;;37.20;52.00;;;;;;5082314;28;20208;-71
2021/06/17 12:23:30;;;;;;;1.33;1.25;;;37.90;51.40;;;;;;5101245;28;20192;-70
2021/06/17 12:26:05;;;;;;;1.02;1.02;;;38.50;50.60;;;;;;5077914;28;20181;-71
2021/06/17 12:28:49;;;;;;;1.17;1.10;;;39.00;50.50;;;;;;5087334;28;20197;-71
2021/06/17 12:31:38;;;;;;;1.33;1.33;;;39.40;49.10;;;;;;5086531;28;20261;-70
2021/06/17 12:34:16;;;;;;;1.10;1.10;;;39.80;49.60;;;;;;5080924;28;21073;-72
2021/06/17 12:36:43;;;;;;;1.05;1.05;;;40.20;48.00;;;;;;5087113;28;20220;-71
2021/06/17 12:39:13;;;;;;;1.20;1.20;;;40.20;48.50;;;;;;5079938;28;20231;-73
2021/06/17 12:41:47;;;;;;;1.20;1.20;;;40.10;50.40;;;;;;5087457;28;20188;-71
2021/06/17 12:44:32;;;;;;;1.85;1.20;;;40.10;47.90;;;;;;5088875;28;20169;-72
2021/06/17 12:47:01;;;;;;;0.95;0.95;;;40.50;46.30;;;;;;5082667;28;20189;-72
2021/06/17 12:52:02;;;;;;;1.00;1.00;;;40.60;50.40;;;;;;5086816;28;20182;-71
2021/06/17 12:52:13;;;;;;;1.40;1.30;;;40.70;50.20;;;;;;5079719;28;20188;-72
2021/06/17 12:54:43;;;;;;;1.40;1.02;;;40.90;50.10;;;;;;5088222;28;20182;-71
2021/06/17 12:57:12;;;;;;;1.00;1.00;;;41.20;48.20;;;;;;5087810;28;20225;-72
2021/06/17 13:00:01;;;;;;;1.02;1.02;;;41.20;48.00;;;;;;5087987;28;20184;-70
2021/06/17 13:02:27;;;;;;;2.67;0.90;;;40.70;45.70;;;;;;5088138;28;20170;-72